PFY220 YSSY-YLHI
Flight info
| Callsign | PFY220 |
|---|---|
| Flight time | 1h 25m |
| Altitude | 45000 |
| Route | SY3/25 TESAT B450 LHI |
| Aircraft | PC24/M-SBDGIRWY/LB2 |
Departure
| Time | 2026-05-07 06:42 |
|---|---|
| Airport | Sydney Kingsford Smith International Airport (YSSY) |
Arrival
| Time | 2026-05-07 08:07 |
|---|---|
| Airport | Lord Howe Island Airport (YLHI) |
| Time | Latitude | Longitude | Altitude | Speed | Heading |
|---|---|---|---|---|---|
| 2026-05-07 06:10 | -33.93361 | 151.18824 | 26 ft | 0 kts | 189° |
| 2026-05-07 06:37 | -33.93362 | 151.18824 | 26 ft | 1 kts | 189° |
| 2026-05-07 06:37 | -33.93387 | 151.18838 | 26 ft | 5 kts | 107° |
| 2026-05-07 06:37 | -33.93406 | 151.18879 | 26 ft | 6 kts | 170° |
| 2026-05-07 06:37 | -33.93447 | 151.18868 | 26 ft | 6 kts | 203° |
| 2026-05-07 06:38 | -33.93491 | 151.18856 | 27 ft | 7 kts | 189° |
| 2026-05-07 06:38 | -33.93538 | 151.18845 | 25 ft | 7 kts | 190° |
| 2026-05-07 06:38 | -33.93586 | 151.18848 | 25 ft | 7 kts | 139° |
| 2026-05-07 06:38 | -33.93609 | 151.18907 | 25 ft | 9 kts | 124° |
| 2026-05-07 06:39 | -33.93662 | 151.18947 | 23 ft | 6 kts | 165° |
| 2026-05-07 06:39 | -33.93667 | 151.18949 | 26 ft | 0 kts | 167° |
| 2026-05-07 06:41 | -33.93690 | 151.18956 | 22 ft | 10 kts | 165° |
| 2026-05-07 06:41 | -33.93744 | 151.18950 | 20 ft | 14 kts | 213° |
| 2026-05-07 06:41 | -33.93780 | 151.18875 | 21 ft | 2 kts | 254° |
| 2026-05-07 06:41 | -33.93780 | 151.18872 | 21 ft | 4 kts | 255° |
| 2026-05-07 06:42 | -33.93864 | 151.18517 | 25 ft | 88 kts | 254° |
| 2026-05-07 06:42 | -33.94096 | 151.17520 | 251 ft | 150 kts | 254° |
| 2026-05-07 06:42 | -33.94342 | 151.16153 | 940 ft | 173 kts | 261° |
| 2026-05-07 06:42 | -33.94306 | 151.14765 | 1505 ft | 167 kts | 282° |
| 2026-05-07 06:43 | -33.93594 | 151.13660 | 2041 ft | 169 kts | 311° |
| 2026-05-07 06:43 | -33.92681 | 151.12805 | 2598 ft | 163 kts | 313° |
| 2026-05-07 06:43 | -33.91760 | 151.11958 | 2992 ft | 181 kts | 312° |
| 2026-05-07 06:43 | -33.90357 | 151.10640 | 4225 ft | 197 kts | 312° |
| 2026-05-07 06:44 | -33.89614 | 151.09957 | 5001 ft | 202 kts | 312° |
| 2026-05-07 06:44 | -33.88494 | 151.08895 | 6142 ft | 204 kts | 307° |
| 2026-05-07 06:44 | -33.87213 | 151.07910 | 7037 ft | 233 kts | 329° |
| 2026-05-07 06:44 | -33.85545 | 151.07705 | 7883 ft | 269 kts | 6° |
| 2026-05-07 06:45 | -33.83786 | 151.08800 | 8298 ft | 303 kts | 42° |
| 2026-05-07 06:45 | -33.82609 | 151.10896 | 8946 ft | 307 kts | 74° |
| 2026-05-07 06:45 | -33.82519 | 151.13328 | 10302 ft | 276 kts | 111° |
| 2026-05-07 06:45 | -33.83081 | 151.15391 | 12151 ft | 246 kts | 118° |
| 2026-05-07 06:46 | -33.83641 | 151.17348 | 13346 ft | 258 kts | 115° |
| 2026-05-07 06:46 | -33.84023 | 151.19481 | 14098 ft | 264 kts | 102° |
| 2026-05-07 06:46 | -33.83967 | 151.21742 | 14836 ft | 276 kts | 86° |
| 2026-05-07 06:46 | -33.83641 | 151.24047 | 15606 ft | 282 kts | 83° |
| 2026-05-07 06:47 | -33.83339 | 151.26393 | 16389 ft | 285 kts | 86° |
| 2026-05-07 06:47 | -33.83125 | 151.28776 | 17196 ft | 289 kts | 88° |
| 2026-05-07 06:47 | -33.82911 | 151.31200 | 18023 ft | 294 kts | 86° |
| 2026-05-07 06:47 | -33.82666 | 151.33666 | 18796 ft | 299 kts | 86° |
| 2026-05-07 06:48 | -33.82414 | 151.36157 | 19524 ft | 301 kts | 85° |
| 2026-05-07 06:48 | -33.82169 | 151.38650 | 20258 ft | 306 kts | 85° |
| 2026-05-07 06:48 | -33.81916 | 151.41217 | 21022 ft | 312 kts | 84° |
| 2026-05-07 06:48 | -33.81659 | 151.43828 | 21804 ft | 317 kts | 84° |
| 2026-05-07 06:49 | -33.81395 | 151.46478 | 22609 ft | 321 kts | 84° |
| 2026-05-07 06:49 | -33.81128 | 151.49159 | 23433 ft | 324 kts | 83° |
| 2026-05-07 06:49 | -33.80858 | 151.51874 | 23963 ft | 334 kts | 83° |
| 2026-05-07 06:49 | -33.80578 | 151.54678 | 24528 ft | 339 kts | 83° |
| 2026-05-07 06:50 | -33.80295 | 151.57509 | 25133 ft | 343 kts | 83° |
| 2026-05-07 06:50 | -33.80007 | 151.60373 | 25718 ft | 347 kts | 83° |
| 2026-05-07 06:50 | -33.79714 | 151.63302 | 26314 ft | 352 kts | 81° |
| 2026-05-07 06:50 | -33.79423 | 151.66175 | 26897 ft | 355 kts | 81° |
| 2026-05-07 06:51 | -33.79124 | 151.69135 | 27468 ft | 358 kts | 81° |
| 2026-05-07 06:51 | -33.78820 | 151.72130 | 27939 ft | 364 kts | 80° |
| 2026-05-07 06:51 | -33.78331 | 151.75130 | 28386 ft | 365 kts | 66° |
| 2026-05-07 06:51 | -33.77503 | 151.78019 | 28955 ft | 368 kts | 66° |
| 2026-05-07 06:52 | -33.76698 | 151.80957 | 29493 ft | 372 kts | 67° |
| 2026-05-07 06:52 | -33.75888 | 151.83925 | 30024 ft | 375 kts | 66° |
| 2026-05-07 06:52 | -33.75056 | 151.86912 | 30461 ft | 379 kts | 66° |
| 2026-05-07 06:52 | -33.74211 | 151.89926 | 30864 ft | 383 kts | 66° |
| 2026-05-07 06:53 | -33.73361 | 151.92982 | 31269 ft | 387 kts | 66° |
| 2026-05-07 06:53 | -33.72505 | 151.96060 | 31679 ft | 390 kts | 64° |
| 2026-05-07 06:53 | -33.71638 | 151.99166 | 32048 ft | 394 kts | 64° |
| 2026-05-07 06:53 | -33.70770 | 152.02268 | 32413 ft | 398 kts | 64° |
| 2026-05-07 06:54 | -33.69884 | 152.05438 | 32777 ft | 403 kts | 64° |
| 2026-05-07 06:54 | -33.68989 | 152.08639 | 33138 ft | 407 kts | 64° |
| 2026-05-07 06:54 | -33.68080 | 152.11880 | 33489 ft | 411 kts | 64° |
| 2026-05-07 06:54 | -33.67163 | 152.15150 | 33836 ft | 415 kts | 64° |
| 2026-05-07 06:55 | -33.66235 | 152.18451 | 34023 ft | 422 kts | 63° |
| 2026-05-07 06:55 | -33.65287 | 152.21815 | 34307 ft | 426 kts | 64° |
| 2026-05-07 06:55 | -33.64343 | 152.25186 | 34658 ft | 427 kts | 64° |
| 2026-05-07 06:55 | -33.63389 | 152.28572 | 34979 ft | 429 kts | 64° |
| 2026-05-07 06:56 | -33.62433 | 152.31956 | 35361 ft | 428 kts | 64° |
| 2026-05-07 06:56 | -33.61478 | 152.35337 | 35761 ft | 427 kts | 64° |
| 2026-05-07 06:56 | -33.60526 | 152.38705 | 36156 ft | 426 kts | 64° |
| 2026-05-07 06:56 | -33.59575 | 152.42063 | 36546 ft | 425 kts | 64° |
| 2026-05-07 06:57 | -33.58623 | 152.45418 | 36941 ft | 424 kts | 64° |
| 2026-05-07 06:57 | -33.57674 | 152.48761 | 37333 ft | 423 kts | 64° |
| 2026-05-07 06:57 | -33.56725 | 152.52101 | 37715 ft | 422 kts | 64° |
| 2026-05-07 06:57 | -33.55779 | 152.55425 | 38069 ft | 421 kts | 64° |
| 2026-05-07 06:58 | -33.54830 | 152.58755 | 38450 ft | 420 kts | 64° |
| 2026-05-07 06:58 | -33.53898 | 152.62025 | 38760 ft | 420 kts | 63° |
| 2026-05-07 06:58 | -33.52947 | 152.65351 | 38972 ft | 422 kts | 63° |
| 2026-05-07 06:58 | -33.51995 | 152.68682 | 39270 ft | 422 kts | 63° |
| 2026-05-07 06:59 | -33.51044 | 152.72007 | 39586 ft | 421 kts | 63° |
| 2026-05-07 06:59 | -33.50096 | 152.75318 | 39882 ft | 420 kts | 63° |
| 2026-05-07 06:59 | -33.49148 | 152.78623 | 40185 ft | 419 kts | 63° |
| 2026-05-07 06:59 | -33.48200 | 152.81922 | 40487 ft | 418 kts | 64° |
| 2026-05-07 07:00 | -33.47255 | 152.85213 | 40807 ft | 417 kts | 63° |
| 2026-05-07 07:00 | -33.46313 | 152.88485 | 41117 ft | 415 kts | 63° |
| 2026-05-07 07:00 | -33.45367 | 152.91762 | 41399 ft | 415 kts | 63° |
| 2026-05-07 07:00 | -33.44427 | 152.95024 | 41692 ft | 414 kts | 63° |
| 2026-05-07 07:01 | -33.43486 | 152.98282 | 41984 ft | 413 kts | 64° |
| 2026-05-07 07:01 | -33.42547 | 153.01531 | 42267 ft | 413 kts | 64° |
| 2026-05-07 07:01 | -33.41606 | 153.04778 | 42550 ft | 412 kts | 64° |
| 2026-05-07 07:01 | -33.40667 | 153.08019 | 42796 ft | 412 kts | 63° |
| 2026-05-07 07:02 | -33.39726 | 153.11266 | 43068 ft | 412 kts | 63° |
| 2026-05-07 07:02 | -33.38787 | 153.14499 | 43346 ft | 411 kts | 63° |
| 2026-05-07 07:02 | -33.37845 | 153.17733 | 43598 ft | 412 kts | 63° |
| 2026-05-07 07:02 | -33.36905 | 153.20965 | 43877 ft | 411 kts | 63° |
| 2026-05-07 07:03 | -33.35977 | 153.24150 | 44147 ft | 411 kts | 63° |
| 2026-05-07 07:03 | -33.35038 | 153.27373 | 44411 ft | 410 kts | 63° |
| 2026-05-07 07:03 | -33.34096 | 153.30596 | 44669 ft | 410 kts | 63° |
| 2026-05-07 07:03 | -33.33156 | 153.33811 | 44903 ft | 410 kts | 63° |
| 2026-05-07 07:04 | -33.31248 | 153.40310 | 44996 ft | 420 kts | 63° |
| 2026-05-07 07:04 | -33.29285 | 153.47007 | 45001 ft | 433 kts | 63° |
| 2026-05-07 07:05 | -33.27259 | 153.53893 | 44973 ft | 445 kts | 63° |
| 2026-05-07 07:05 | -33.25180 | 153.60947 | 44993 ft | 455 kts | 64° |
| 2026-05-07 07:06 | -33.23050 | 153.68151 | 44980 ft | 464 kts | 64° |
| 2026-05-07 07:06 | -33.20879 | 153.75481 | 44970 ft | 472 kts | 64° |
| 2026-05-07 07:07 | -33.18669 | 153.82919 | 44972 ft | 479 kts | 64° |
| 2026-05-07 07:07 | -33.16440 | 153.90406 | 44968 ft | 485 kts | 64° |
| 2026-05-07 07:08 | -33.14166 | 153.98023 | 44965 ft | 490 kts | 64° |
| 2026-05-07 07:08 | -33.11867 | 154.05710 | 44932 ft | 491 kts | 64° |
| 2026-05-07 07:09 | -33.10734 | 154.09501 | 44950 ft | 479 kts | 64° |
| 2026-05-07 07:09 | -33.09628 | 154.13192 | 44934 ft | 468 kts | 64° |
| 2026-05-07 07:09 | -33.07424 | 154.20484 | 44941 ft | 468 kts | 64° |
| 2026-05-07 07:10 | -33.05210 | 154.27836 | 44953 ft | 474 kts | 64° |
| 2026-05-07 07:10 | -33.02958 | 154.35282 | 44953 ft | 480 kts | 64° |
| 2026-05-07 07:11 | -33.00703 | 154.42737 | 44941 ft | 475 kts | 64° |
| 2026-05-07 07:11 | -32.98477 | 154.50056 | 44930 ft | 472 kts | 63° |
| 2026-05-07 07:12 | -32.96233 | 154.57423 | 44939 ft | 474 kts | 63° |
| 2026-05-07 07:12 | -32.93974 | 154.64826 | 44951 ft | 476 kts | 63° |
| 2026-05-07 07:13 | -32.91701 | 154.72250 | 44936 ft | 478 kts | 63° |
| 2026-05-07 07:13 | -32.89414 | 154.79707 | 44948 ft | 480 kts | 63° |
| 2026-05-07 07:14 | -32.87138 | 154.87110 | 44938 ft | 479 kts | 63° |
| 2026-05-07 07:14 | -32.84893 | 154.94556 | 44931 ft | 480 kts | 67° |
| 2026-05-07 07:15 | -32.83029 | 155.02161 | 44937 ft | 477 kts | 66° |
| 2026-05-07 07:15 | -32.81129 | 155.09693 | 44931 ft | 473 kts | 67° |
| 2026-05-07 07:16 | -32.79269 | 155.17171 | 44927 ft | 471 kts | 66° |
| 2026-05-07 07:16 | -32.77405 | 155.24580 | 44927 ft | 469 kts | 67° |
| 2026-05-07 07:17 | -32.75545 | 155.31984 | 44924 ft | 465 kts | 66° |
| 2026-05-07 07:17 | -32.73692 | 155.39324 | 44920 ft | 462 kts | 66° |
| 2026-05-07 07:18 | -32.71840 | 155.46638 | 44930 ft | 464 kts | 66° |
| 2026-05-07 07:18 | -32.69964 | 155.54030 | 44934 ft | 470 kts | 66° |
| 2026-05-07 07:19 | -32.68066 | 155.61499 | 44924 ft | 473 kts | 66° |
| 2026-05-07 07:19 | -32.66170 | 155.68937 | 44928 ft | 469 kts | 66° |
| 2026-05-07 07:20 | -32.64281 | 155.76321 | 44917 ft | 465 kts | 66° |
| 2026-05-07 07:20 | -32.62414 | 155.83597 | 44920 ft | 464 kts | 66° |
| 2026-05-07 07:21 | -32.60526 | 155.90938 | 44919 ft | 466 kts | 66° |
| 2026-05-07 07:21 | -32.58625 | 155.98314 | 44914 ft | 468 kts | 66° |
| 2026-05-07 07:22 | -32.56710 | 156.05714 | 44921 ft | 472 kts | 66° |
| 2026-05-07 07:22 | -32.54776 | 156.13183 | 44925 ft | 474 kts | 66° |
| 2026-05-07 07:23 | -32.52838 | 156.20641 | 44919 ft | 473 kts | 66° |
| 2026-05-07 07:23 | -32.50900 | 156.28074 | 44909 ft | 471 kts | 65° |
| 2026-05-07 07:24 | -32.48969 | 156.35466 | 44910 ft | 469 kts | 65° |
| 2026-05-07 07:24 | -32.47038 | 156.42831 | 44910 ft | 467 kts | 65° |
| 2026-05-07 07:25 | -32.44147 | 156.53824 | 44914 ft | 469 kts | 65° |
| 2026-05-07 07:26 | -32.42191 | 156.61238 | 44913 ft | 474 kts | 65° |
| 2026-05-07 07:26 | -32.40214 | 156.68717 | 44924 ft | 477 kts | 65° |
| 2026-05-07 07:27 | -32.38233 | 156.76195 | 44926 ft | 475 kts | 65° |
| 2026-05-07 07:27 | -32.36251 | 156.83644 | 44916 ft | 473 kts | 65° |
| 2026-05-07 07:28 | -32.34267 | 156.91079 | 44526 ft | 480 kts | 65° |
| 2026-05-07 07:28 | -32.33595 | 156.93584 | 44080 ft | 483 kts | 65° |
| 2026-05-07 07:28 | -32.32596 | 156.97346 | 43442 ft | 476 kts | 65° |
| 2026-05-07 07:28 | -32.31608 | 157.01059 | 42821 ft | 471 kts | 65° |
| 2026-05-07 07:29 | -32.30293 | 157.05935 | 41962 ft | 471 kts | 64° |
| 2026-05-07 07:29 | -32.29618 | 157.08431 | 41583 ft | 474 kts | 64° |
| 2026-05-07 07:29 | -32.28280 | 157.13409 | 40754 ft | 484 kts | 64° |
| 2026-05-07 07:29 | -32.27254 | 157.17231 | 40120 ft | 494 kts | 64° |
| 2026-05-07 07:30 | -32.26588 | 157.19692 | 39704 ft | 500 kts | 64° |
| 2026-05-07 07:30 | -32.25148 | 157.25042 | 38790 ft | 502 kts | 64° |
| 2026-05-07 07:30 | -32.24435 | 157.27692 | 38297 ft | 501 kts | 64° |
| 2026-05-07 07:30 | -32.23381 | 157.31598 | 37614 ft | 496 kts | 64° |
| 2026-05-07 07:31 | -32.22338 | 157.35446 | 36968 ft | 489 kts | 63° |
| 2026-05-07 07:31 | -32.21318 | 157.39201 | 36337 ft | 484 kts | 63° |
| 2026-05-07 07:31 | -32.20280 | 157.43018 | 35697 ft | 480 kts | 63° |
| 2026-05-07 07:31 | -32.19276 | 157.46705 | 35078 ft | 477 kts | 62° |
| 2026-05-07 07:32 | -32.18259 | 157.50436 | 34451 ft | 477 kts | 62° |
| 2026-05-07 07:32 | -32.17240 | 157.54166 | 33808 ft | 478 kts | 62° |
| 2026-05-07 07:32 | -32.16223 | 157.57894 | 33144 ft | 475 kts | 63° |
| 2026-05-07 07:32 | -32.15214 | 157.61597 | 32515 ft | 473 kts | 63° |
| 2026-05-07 07:33 | -32.14195 | 157.65307 | 31907 ft | 475 kts | 63° |
| 2026-05-07 07:33 | -32.13174 | 157.69017 | 31287 ft | 476 kts | 63° |
| 2026-05-07 07:33 | -32.12159 | 157.72727 | 30664 ft | 474 kts | 64° |
| 2026-05-07 07:33 | -32.11148 | 157.76419 | 30046 ft | 471 kts | 64° |
| 2026-05-07 07:34 | -32.10142 | 157.80070 | 29380 ft | 466 kts | 64° |
| 2026-05-07 07:34 | -32.09141 | 157.83697 | 28772 ft | 465 kts | 64° |
| 2026-05-07 07:34 | -32.08134 | 157.87331 | 28127 ft | 468 kts | 64° |
| 2026-05-07 07:34 | -32.07128 | 157.90979 | 27628 ft | 467 kts | 64° |
| 2026-05-07 07:35 | -32.06123 | 157.94627 | 27013 ft | 467 kts | 64° |
| 2026-05-07 07:35 | -32.05121 | 157.98247 | 26401 ft | 462 kts | 64° |
| 2026-05-07 07:35 | -32.04143 | 158.01780 | 25809 ft | 456 kts | 64° |
| 2026-05-07 07:35 | -32.03159 | 158.05314 | 25219 ft | 452 kts | 65° |
| 2026-05-07 07:36 | -32.02186 | 158.08815 | 24630 ft | 447 kts | 65° |
| 2026-05-07 07:36 | -32.01219 | 158.12292 | 24044 ft | 442 kts | 65° |
| 2026-05-07 07:36 | -32.00264 | 158.15723 | 23440 ft | 438 kts | 65° |
| 2026-05-07 07:36 | -31.99320 | 158.19105 | 22844 ft | 432 kts | 65° |
| 2026-05-07 07:37 | -31.98390 | 158.22436 | 22274 ft | 424 kts | 65° |
| 2026-05-07 07:37 | -31.97469 | 158.25730 | 21733 ft | 422 kts | 65° |
| 2026-05-07 07:37 | -31.96551 | 158.28999 | 21182 ft | 419 kts | 65° |
| 2026-05-07 07:37 | -31.95644 | 158.32245 | 20633 ft | 415 kts | 65° |
| 2026-05-07 07:38 | -31.94755 | 158.35413 | 20095 ft | 410 kts | 65° |
| 2026-05-07 07:38 | -31.93865 | 158.38587 | 19559 ft | 406 kts | 65° |
| 2026-05-07 07:38 | -31.92982 | 158.41723 | 19030 ft | 401 kts | 65° |
| 2026-05-07 07:38 | -31.92109 | 158.44828 | 18505 ft | 397 kts | 65° |
| 2026-05-07 07:39 | -31.91245 | 158.47895 | 17957 ft | 393 kts | 65° |
| 2026-05-07 07:39 | -31.90390 | 158.50927 | 17436 ft | 387 kts | 65° |
| 2026-05-07 07:39 | -31.89547 | 158.53916 | 16929 ft | 383 kts | 65° |
| 2026-05-07 07:39 | -31.88707 | 158.56880 | 16427 ft | 381 kts | 65° |
| 2026-05-07 07:40 | -31.87873 | 158.59829 | 15925 ft | 379 kts | 65° |
| 2026-05-07 07:40 | -31.87042 | 158.62763 | 15428 ft | 377 kts | 65° |
| 2026-05-07 07:40 | -31.86215 | 158.65686 | 14932 ft | 374 kts | 65° |
| 2026-05-07 07:40 | -31.85397 | 158.68566 | 14443 ft | 370 kts | 65° |
| 2026-05-07 07:41 | -31.84594 | 158.71399 | 13967 ft | 367 kts | 66° |
| 2026-05-07 07:41 | -31.83787 | 158.74233 | 13457 ft | 364 kts | 66° |
| 2026-05-07 07:41 | -31.82987 | 158.77046 | 12968 ft | 362 kts | 66° |
| 2026-05-07 07:41 | -31.82198 | 158.79811 | 12505 ft | 361 kts | 65° |
| 2026-05-07 07:42 | -31.81403 | 158.82605 | 12039 ft | 360 kts | 65° |
| 2026-05-07 07:42 | -31.80607 | 158.85392 | 11553 ft | 359 kts | 65° |
| 2026-05-07 07:42 | -31.79816 | 158.88164 | 11079 ft | 356 kts | 65° |
| 2026-05-07 07:42 | -31.79032 | 158.90908 | 10614 ft | 352 kts | 65° |
| 2026-05-07 07:43 | -31.78255 | 158.93627 | 10154 ft | 350 kts | 65° |
| 2026-05-07 07:43 | -31.77481 | 158.96329 | 9681 ft | 348 kts | 65° |
| 2026-05-07 07:43 | -31.76708 | 158.99021 | 9205 ft | 346 kts | 65° |
| 2026-05-07 07:43 | -31.75945 | 159.01687 | 8751 ft | 343 kts | 65° |
| 2026-05-07 07:44 | -31.75182 | 159.04339 | 8303 ft | 341 kts | 65° |
| 2026-05-07 07:44 | -31.74423 | 159.06984 | 7853 ft | 339 kts | 66° |
| 2026-05-07 07:44 | -31.73683 | 159.09562 | 7399 ft | 320 kts | 66° |
| 2026-05-07 07:44 | -31.73011 | 159.11930 | 6999 ft | 292 kts | 65° |
| 2026-05-07 07:45 | -31.72389 | 159.14090 | 6630 ft | 267 kts | 65° |
| 2026-05-07 07:45 | -31.71816 | 159.16061 | 6299 ft | 252 kts | 64° |
| 2026-05-07 07:45 | -31.71242 | 159.18021 | 5967 ft | 252 kts | 65° |
| 2026-05-07 07:45 | -31.70692 | 159.19936 | 5621 ft | 244 kts | 65° |
| 2026-05-07 07:46 | -31.70154 | 159.21799 | 5286 ft | 236 kts | 64° |
| 2026-05-07 07:46 | -31.69384 | 159.23396 | 4974 ft | 220 kts | 42° |
| 2026-05-07 07:46 | -31.68248 | 159.24552 | 4678 ft | 212 kts | 24° |
| 2026-05-07 07:46 | -31.66955 | 159.25192 | 4381 ft | 194 kts | 7° |
| 2026-05-07 07:47 | -31.65658 | 159.25378 | 4133 ft | 185 kts | 356° |
| 2026-05-07 07:47 | -31.64367 | 159.25485 | 3877 ft | 186 kts | 358° |
| 2026-05-07 07:47 | -31.63073 | 159.25575 | 3602 ft | 183 kts | 352° |
| 2026-05-07 07:47 | -31.61899 | 159.25272 | 3363 ft | 166 kts | 335° |
| 2026-05-07 07:48 | -31.60909 | 159.24616 | 3144 ft | 163 kts | 320° |
| 2026-05-07 07:48 | -31.60129 | 159.23660 | 2916 ft | 163 kts | 307° |
| 2026-05-07 07:48 | -31.59598 | 159.22478 | 2698 ft | 164 kts | 295° |
| 2026-05-07 07:48 | -31.59130 | 159.21255 | 2468 ft | 164 kts | 297° |
| 2026-05-07 07:49 | -31.58658 | 159.20040 | 2235 ft | 163 kts | 296° |
| 2026-05-07 07:49 | -31.58204 | 159.18870 | 2011 ft | 150 kts | 296° |
| 2026-05-07 07:49 | -31.57803 | 159.17834 | 1801 ft | 131 kts | 296° |
| 2026-05-07 07:49 | -31.57445 | 159.16906 | 1653 ft | 120 kts | 295° |
| 2026-05-07 07:50 | -31.57086 | 159.15984 | 1493 ft | 126 kts | 295° |
| 2026-05-07 07:50 | -31.56741 | 159.15092 | 1312 ft | 113 kts | 295° |
| 2026-05-07 07:50 | -31.56444 | 159.14322 | 1133 ft | 96 kts | 295° |
| 2026-05-07 07:50 | -31.56182 | 159.13642 | 932 ft | 87 kts | 299° |
| 2026-05-07 07:51 | -31.55909 | 159.12949 | 794 ft | 98 kts | 296° |
| 2026-05-07 07:51 | -31.55663 | 159.12261 | 672 ft | 86 kts | 292° |
| 2026-05-07 07:51 | -31.55420 | 159.11560 | 513 ft | 108 kts | 293° |
| 2026-05-07 07:51 | -31.55110 | 159.10769 | 462 ft | 107 kts | 295° |
| 2026-05-07 07:52 | -31.54787 | 159.09982 | 391 ft | 107 kts | 295° |
| 2026-05-07 07:52 | -31.54487 | 159.09204 | 232 ft | 103 kts | 298° |
| 2026-05-07 07:52 | -31.54174 | 159.08443 | 110 ft | 105 kts | 296° |
| 2026-05-07 07:52 | -31.53870 | 159.07679 | 27 ft | 95 kts | 294° |
| 2026-05-07 07:53 | -31.53571 | 159.06900 | 162 ft | 125 kts | 293° |
| 2026-05-07 07:53 | -31.53211 | 159.05787 | 586 ft | 165 kts | 294° |
| 2026-05-07 07:53 | -31.52736 | 159.04606 | 1784 ft | 160 kts | 296° |
| 2026-05-07 07:53 | -31.52228 | 159.03408 | 2492 ft | 178 kts | 298° |
| 2026-05-07 07:54 | -31.51661 | 159.02152 | 3182 ft | 166 kts | 299° |
| 2026-05-07 07:54 | -31.51087 | 159.00957 | 3719 ft | 176 kts | 300° |
| 2026-05-07 07:54 | -31.50493 | 158.99701 | 4114 ft | 177 kts | 300° |
| 2026-05-07 07:54 | -31.49808 | 158.98499 | 4031 ft | 178 kts | 317° |
| 2026-05-07 07:55 | -31.48648 | 158.98132 | 4002 ft | 178 kts | 356° |
| 2026-05-07 07:55 | -31.47425 | 158.98379 | 3995 ft | 185 kts | 15° |
| 2026-05-07 07:55 | -31.46363 | 158.99293 | 4004 ft | 192 kts | 33° |
| 2026-05-07 07:55 | -31.45367 | 159.00359 | 4011 ft | 195 kts | 34° |
| 2026-05-07 07:56 | -31.44365 | 159.01452 | 4011 ft | 196 kts | 34° |
| 2026-05-07 07:56 | -31.43365 | 159.02533 | 4009 ft | 194 kts | 34° |
| 2026-05-07 07:56 | -31.42407 | 159.03651 | 3992 ft | 200 kts | 48° |
| 2026-05-07 07:56 | -31.42135 | 159.05297 | 3989 ft | 220 kts | 98° |
| 2026-05-07 07:57 | -31.42686 | 159.06942 | 4014 ft | 220 kts | 113° |
| 2026-05-07 07:57 | -31.43342 | 159.08575 | 4009 ft | 223 kts | 114° |
| 2026-05-07 07:57 | -31.44007 | 159.10199 | 4018 ft | 214 kts | 114° |
| 2026-05-07 07:57 | -31.44625 | 159.11685 | 3982 ft | 195 kts | 114° |
| 2026-05-07 07:58 | -31.45210 | 159.13080 | 3986 ft | 188 kts | 114° |
| 2026-05-07 07:58 | -31.45790 | 159.14453 | 3988 ft | 188 kts | 114° |
| 2026-05-07 07:58 | -31.46373 | 159.15833 | 3993 ft | 190 kts | 114° |
| 2026-05-07 07:58 | -31.46960 | 159.17219 | 3997 ft | 191 kts | 114° |
| 2026-05-07 07:59 | -31.47551 | 159.18616 | 4002 ft | 192 kts | 114° |
| 2026-05-07 07:59 | -31.48142 | 159.20020 | 4007 ft | 191 kts | 115° |
| 2026-05-07 07:59 | -31.48716 | 159.21427 | 4009 ft | 196 kts | 114° |
| 2026-05-07 07:59 | -31.49333 | 159.22942 | 4026 ft | 214 kts | 114° |
| 2026-05-07 08:00 | -31.49983 | 159.24534 | 4013 ft | 219 kts | 114° |
| 2026-05-07 08:00 | -31.50648 | 159.26159 | 4019 ft | 221 kts | 114° |
| 2026-05-07 08:00 | -31.51305 | 159.27767 | 4013 ft | 221 kts | 114° |
| 2026-05-07 08:00 | -31.52210 | 159.29215 | 3987 ft | 219 kts | 149° |
| 2026-05-07 08:01 | -31.53599 | 159.29572 | 3993 ft | 204 kts | 198° |
| 2026-05-07 08:01 | -31.54686 | 159.28743 | 4000 ft | 180 kts | 245° |
| 2026-05-07 08:01 | -31.55168 | 159.27432 | 4011 ft | 175 kts | 257° |
| 2026-05-07 08:01 | -31.55471 | 159.26020 | 3724 ft | 181 kts | 264° |
| 2026-05-07 08:02 | -31.55747 | 159.24590 | 3395 ft | 177 kts | 262° |
| 2026-05-07 08:02 | -31.56044 | 159.23214 | 3079 ft | 170 kts | 262° |
| 2026-05-07 08:02 | -31.56332 | 159.21940 | 2775 ft | 150 kts | 262° |
| 2026-05-07 08:02 | -31.56579 | 159.20844 | 2543 ft | 124 kts | 263° |
| 2026-05-07 08:03 | -31.56781 | 159.19952 | 2307 ft | 103 kts | 266° |
| 2026-05-07 08:03 | -31.56949 | 159.19183 | 2055 ft | 94 kts | 266° |
| 2026-05-07 08:03 | -31.57110 | 159.18442 | 1847 ft | 95 kts | 266° |
| 2026-05-07 08:03 | -31.57273 | 159.17675 | 1743 ft | 97 kts | 265° |
| 2026-05-07 08:04 | -31.57294 | 159.16904 | 1621 ft | 93 kts | 280° |
| 2026-05-07 08:04 | -31.57159 | 159.16180 | 1485 ft | 89 kts | 292° |
| 2026-05-07 08:04 | -31.56911 | 159.15542 | 1346 ft | 86 kts | 294° |
| 2026-05-07 08:04 | -31.56647 | 159.14847 | 1282 ft | 96 kts | 295° |
| 2026-05-07 08:05 | -31.56376 | 159.14143 | 1130 ft | 93 kts | 295° |
| 2026-05-07 08:05 | -31.56116 | 159.13476 | 996 ft | 90 kts | 294° |
| 2026-05-07 08:05 | -31.55858 | 159.12809 | 895 ft | 88 kts | 299° |
| 2026-05-07 08:05 | -31.55588 | 159.12121 | 790 ft | 96 kts | 295° |
| 2026-05-07 08:06 | -31.55335 | 159.11421 | 705 ft | 88 kts | 294° |
| 2026-05-07 08:06 | -31.55086 | 159.10723 | 575 ft | 100 kts | 295° |
| 2026-05-07 08:06 | -31.54779 | 159.09963 | 453 ft | 106 kts | 296° |
| 2026-05-07 08:06 | -31.54497 | 159.09222 | 238 ft | 100 kts | 297° |
| 2026-05-07 08:07 | -31.54182 | 159.08463 | 119 ft | 104 kts | 297° |
| 2026-05-07 08:07 | -31.53888 | 159.07720 | 24 ft | 92 kts | 295° |
| 2026-05-07 08:07 | -31.53716 | 159.07279 | 23 ft | 26 kts | 295° |
| 2026-05-07 08:07 | -31.53670 | 159.07170 | 24 ft | 6 kts | 316° |
| 2026-05-07 08:08 | -31.53654 | 159.07158 | 27 ft | 0 kts | 330° |
| 2026-05-07 08:08 | -31.53642 | 159.07147 | 27 ft | 4 kts | 308° |
| 2026-05-07 08:08 | -31.53652 | 159.07124 | 27 ft | 5 kts | 174° |
| 2026-05-07 08:08 | -31.53684 | 159.07195 | 23 ft | 15 kts | 114° |
| 2026-05-07 08:09 | -31.53728 | 159.07309 | 24 ft | 13 kts | 114° |
| 2026-05-07 08:09 | -31.53770 | 159.07418 | 23 ft | 16 kts | 114° |
| 2026-05-07 08:09 | -31.53824 | 159.07557 | 22 ft | 21 kts | 114° |
| 2026-05-07 08:09 | -31.53884 | 159.07712 | 23 ft | 21 kts | 114° |
| 2026-05-07 08:10 | -31.53928 | 159.07825 | 23 ft | 10 kts | 114° |
| 2026-05-07 08:10 | -31.53953 | 159.07867 | 23 ft | 5 kts | 169° |
| 2026-05-07 08:10 | -31.53982 | 159.07856 | 27 ft | 2 kts | 204° |
| 2026-05-07 08:10 | -31.54001 | 159.07846 | 27 ft | 4 kts | 204° |
| 2026-05-07 08:11 | -31.54017 | 159.07851 | 27 ft | 1 kts | 143° |
| 2026-05-07 08:11 | -31.54027 | 159.07863 | 27 ft | 3 kts | 132° |
| 2026-05-07 08:11 | -31.54037 | 159.07866 | 27 ft | 1 kts | 213° |
| 2026-05-07 08:11 | -31.54039 | 159.07861 | 27 ft | 0 kts | 233° |